sensor_id;sensor_type;location;lat;lon;timestamp;P1;durP1;ratioP1;P2;durP2;ratioP2
14191;SDS011;7177;48.572;7.838;2023-10-19T00:00:30;35.57;;;24.67;;
14191;SDS011;7177;48.572;7.838;2023-10-19T00:02:58;35.73;;;25.03;;
14191;SDS011;7177;48.572;7.838;2023-10-19T00:05:27;31.90;;;24.57;;
14191;SDS011;7177;48.572;7.838;2023-10-19T00:07:54;30.27;;;24.63;;
14191;SDS011;7177;48.572;7.838;2023-10-19T00:10:22;26.80;;;22.23;;
14191;SDS011;7177;48.572;7.838;2023-10-19T00:12:50;31.73;;;23.10;;
14191;SDS011;7177;48.572;7.838;2023-10-19T00:15:25;31.30;;;23.43;;
14191;SDS011;7177;48.572;7.838;2023-10-19T00:17:55;31.43;;;23.53;;
14191;SDS011;7177;48.572;7.838;2023-10-19T00:20:21;32.47;;;23.60;;
14191;SDS011;7177;48.572;7.838;2023-10-19T00:23:16;32.30;;;23.67;;
14191;SDS011;7177;48.572;7.838;2023-10-19T00:25:50;34.93;;;24.27;;
14191;SDS011;7177;48.572;7.838;2023-10-19T00:28:19;32.83;;;24.90;;
14191;SDS011;7177;48.572;7.838;2023-10-19T00:30:45;30.37;;;23.73;;
14191;SDS011;7177;48.572;7.838;2023-10-19T00:33:16;30.37;;;21.50;;
14191;SDS011;7177;48.572;7.838;2023-10-19T00:35:53;31.53;;;23.10;;
14191;SDS011;7177;48.572;7.838;2023-10-19T00:38:35;28.90;;;21.30;;
14191;SDS011;7177;48.572;7.838;2023-10-19T00:41:01;28.70;;;22.23;;
14191;SDS011;7177;48.572;7.838;2023-10-19T00:43:33;32.70;;;22.63;;
14191;SDS011;7177;48.572;7.838;2023-10-19T00:46:01;30.63;;;22.13;;
14191;SDS011;7177;48.572;7.838;2023-10-19T00:48:35;29.87;;;22.33;;
14191;SDS011;7177;48.572;7.838;2023-10-19T00:51:02;32.60;;;24.00;;
14191;SDS011;7177;48.572;7.838;2023-10-19T00:53:46;32.10;;;22.50;;
14191;SDS011;7177;48.572;7.838;2023-10-19T00:56:13;31.37;;;23.40;;
14191;SDS011;7177;48.572;7.838;2023-10-19T00:58:42;29.47;;;22.87;;
14191;SDS011;7177;48.572;7.838;2023-10-19T01:01:12;31.13;;;23.40;;
14191;SDS011;7177;48.572;7.838;2023-10-19T01:03:39;31.10;;;24.00;;
14191;SDS011;7177;48.572;7.838;2023-10-19T01:06:05;33.33;;;25.03;;
14191;SDS011;7177;48.572;7.838;2023-10-19T01:08:35;32.90;;;23.93;;
14191;SDS011;7177;48.572;7.838;2023-10-19T01:11:06;34.67;;;25.40;;
14191;SDS011;7177;48.572;7.838;2023-10-19T01:13:36;34.20;;;25.13;;
14191;SDS011;7177;48.572;7.838;2023-10-19T01:16:15;37.40;;;24.87;;
14191;SDS011;7177;48.572;7.838;2023-10-19T01:18:48;36.17;;;25.07;;
14191;SDS011;7177;48.572;7.838;2023-10-19T01:21:18;39.13;;;25.93;;
14191;SDS011;7177;48.572;7.838;2023-10-19T01:24:10;32.90;;;23.70;;
14191;SDS011;7177;48.572;7.838;2023-10-19T01:26:39;35.10;;;25.60;;
14191;SDS011;7177;48.572;7.838;2023-10-19T01:29:05;36.33;;;26.60;;
14191;SDS011;7177;48.572;7.838;2023-10-19T01:31:41;34.03;;;25.20;;
14191;SDS011;7177;48.572;7.838;2023-10-19T01:34:30;32.77;;;23.47;;
14191;SDS011;7177;48.572;7.838;2023-10-19T01:36:58;33.87;;;24.67;;
14191;SDS011;7177;48.572;7.838;2023-10-19T01:39:27;35.13;;;25.30;;
14191;SDS011;7177;48.572;7.838;2023-10-19T01:41:54;33.97;;;25.13;;
14191;SDS011;7177;48.572;7.838;2023-10-19T01:44:20;35.47;;;24.93;;
14191;SDS011;7177;48.572;7.838;2023-10-19T01:46:46;34.43;;;25.17;;
14191;SDS011;7177;48.572;7.838;2023-10-19T01:49:13;43.57;;;25.43;;
14191;SDS011;7177;48.572;7.838;2023-10-19T01:51:38;31.17;;;22.67;;
14191;SDS011;7177;48.572;7.838;2023-10-19T01:54:07;31.50;;;24.27;;
14191;SDS011;7177;48.572;7.838;2023-10-19T01:56:33;37.07;;;25.17;;
14191;SDS011;7177;48.572;7.838;2023-10-19T01:59:00;34.83;;;24.30;;
14191;SDS011;7177;48.572;7.838;2023-10-19T02:01:28;36.87;;;25.27;;
14191;SDS011;7177;48.572;7.838;2023-10-19T02:03:57;32.63;;;24.33;;
14191;SDS011;7177;48.572;7.838;2023-10-19T02:06:29;31.90;;;23.30;;
14191;SDS011;7177;48.572;7.838;2023-10-19T02:09:11;34.37;;;24.70;;
14191;SDS011;7177;48.572;7.838;2023-10-19T02:11:49;33.30;;;22.67;;
14191;SDS011;7177;48.572;7.838;2023-10-19T02:14:17;31.10;;;23.27;;
14191;SDS011;7177;48.572;7.838;2023-10-19T02:16:45;28.93;;;22.70;;
14191;SDS011;7177;48.572;7.838;2023-10-19T02:19:12;31.67;;;23.67;;
14191;SDS011;7177;48.572;7.838;2023-10-19T02:21:38;31.77;;;24.23;;
14191;SDS011;7177;48.572;7.838;2023-10-19T02:24:08;31.83;;;22.60;;
14191;SDS011;7177;48.572;7.838;2023-10-19T02:26:35;29.97;;;22.20;;
14191;SDS011;7177;48.572;7.838;2023-10-19T02:29:02;32.07;;;22.90;;
14191;SDS011;7177;48.572;7.838;2023-10-19T02:31:32;28.47;;;21.90;;
14191;SDS011;7177;48.572;7.838;2023-10-19T02:33:59;27.30;;;21.40;;
14191;SDS011;7177;48.572;7.838;2023-10-19T02:36:25;31.00;;;22.83;;
14191;SDS011;7177;48.572;7.838;2023-10-19T02:38:58;31.20;;;22.43;;
14191;SDS011;7177;48.572;7.838;2023-10-19T02:41:41;32.03;;;23.57;;
14191;SDS011;7177;48.572;7.838;2023-10-19T02:44:14;31.60;;;21.93;;
14191;SDS011;7177;48.572;7.838;2023-10-19T02:46:41;29.10;;;22.57;;
14191;SDS011;7177;48.572;7.838;2023-10-19T02:49:07;29.50;;;22.87;;
14191;SDS011;7177;48.572;7.838;2023-10-19T02:51:40;34.33;;;23.00;;
14191;SDS011;7177;48.572;7.838;2023-10-19T02:54:10;29.60;;;22.17;;
14191;SDS011;7177;48.572;7.838;2023-10-19T02:56:43;30.20;;;23.47;;
14191;SDS011;7177;48.572;7.838;2023-10-19T02:59:09;33.50;;;23.90;;
14191;SDS011;7177;48.572;7.838;2023-10-19T03:01:35;31.33;;;22.13;;
14191;SDS011;7177;48.572;7.838;2023-10-19T03:04:01;29.43;;;22.60;;
14191;SDS011;7177;48.572;7.838;2023-10-19T03:06:29;33.67;;;23.90;;
14191;SDS011;7177;48.572;7.838;2023-10-19T03:08:59;28.63;;;22.47;;
14191;SDS011;7177;48.572;7.838;2023-10-19T03:11:38;35.00;;;23.53;;
14191;SDS011;7177;48.572;7.838;2023-10-19T03:14:08;32.27;;;22.33;;
14191;SDS011;7177;48.572;7.838;2023-10-19T03:16:35;36.43;;;23.60;;
14191;SDS011;7177;48.572;7.838;2023-10-19T03:19:02;28.87;;;21.90;;
14191;SDS011;7177;48.572;7.838;2023-10-19T03:21:28;27.07;;;21.80;;
14191;SDS011;7177;48.572;7.838;2023-10-19T03:24:15;29.63;;;21.73;;
14191;SDS011;7177;48.572;7.838;2023-10-19T03:27:04;29.83;;;20.67;;
14191;SDS011;7177;48.572;7.838;2023-10-19T03:29:37;27.53;;;19.70;;
14191;SDS011;7177;48.572;7.838;2023-10-19T03:32:04;28.57;;;20.80;;
14191;SDS011;7177;48.572;7.838;2023-10-19T03:34:31;29.40;;;20.57;;
14191;SDS011;7177;48.572;7.838;2023-10-19T03:36:57;25.77;;;19.13;;
14191;SDS011;7177;48.572;7.838;2023-10-19T03:39:30;23.67;;;18.77;;
14191;SDS011;7177;48.572;7.838;2023-10-19T03:41:59;28.73;;;19.33;;
14191;SDS011;7177;48.572;7.838;2023-10-19T03:44:25;25.70;;;19.37;;
14191;SDS011;7177;48.572;7.838;2023-10-19T03:46:51;25.17;;;19.03;;
14191;SDS011;7177;48.572;7.838;2023-10-19T03:49:22;28.03;;;20.03;;
14191;SDS011;7177;48.572;7.838;2023-10-19T03:51:51;24.03;;;18.57;;
14191;SDS011;7177;48.572;7.838;2023-10-19T03:54:35;26.57;;;19.07;;
14191;SDS011;7177;48.572;7.838;2023-10-19T03:57:04;24.90;;;17.47;;
14191;SDS011;7177;48.572;7.838;2023-10-19T03:59:49;31.80;;;19.10;;
14191;SDS011;7177;48.572;7.838;2023-10-19T04:02:15;25.17;;;18.07;;
14191;SDS011;7177;48.572;7.838;2023-10-19T04:04:51;23.13;;;17.90;;
14191;SDS011;7177;48.572;7.838;2023-10-19T04:07:17;26.00;;;17.80;;
14191;SDS011;7177;48.572;7.838;2023-10-19T04:09:50;30.57;;;18.57;;
14191;SDS011;7177;48.572;7.838;2023-10-19T04:12:29;23.67;;;17.37;;
14191;SDS011;7177;48.572;7.838;2023-10-19T04:14:55;27.23;;;17.10;;
14191;SDS011;7177;48.572;7.838;2023-10-19T04:17:39;22.33;;;16.73;;
14191;SDS011;7177;48.572;7.838;2023-10-19T04:20:07;22.57;;;16.80;;
14191;SDS011;7177;48.572;7.838;2023-10-19T04:22:59;25.43;;;18.17;;
14191;SDS011;7177;48.572;7.838;2023-10-19T04:25:31;29.97;;;17.60;;
14191;SDS011;7177;48.572;7.838;2023-10-19T04:27:57;23.57;;;17.67;;
14191;SDS011;7177;48.572;7.838;2023-10-19T04:30:22;26.20;;;18.90;;
14191;SDS011;7177;48.572;7.838;2023-10-19T04:32:48;25.90;;;18.33;;
14191;SDS011;7177;48.572;7.838;2023-10-19T04:35:15;30.43;;;18.77;;
14191;SDS011;7177;48.572;7.838;2023-10-19T04:37:48;29.87;;;18.53;;
14191;SDS011;7177;48.572;7.838;2023-10-19T04:40:21;23.77;;;18.03;;
14191;SDS011;7177;48.572;7.838;2023-10-19T04:42:48;25.73;;;18.53;;
14191;SDS011;7177;48.572;7.838;2023-10-19T04:45:15;24.60;;;18.43;;
14191;SDS011;7177;48.572;7.838;2023-10-19T04:47:41;26.40;;;17.33;;
14191;SDS011;7177;48.572;7.838;2023-10-19T04:50:06;28.13;;;18.23;;
14191;SDS011;7177;48.572;7.838;2023-10-19T04:52:33;32.77;;;19.13;;
14191;SDS011;7177;48.572;7.838;2023-10-19T04:54:59;27.33;;;18.27;;
14191;SDS011;7177;48.572;7.838;2023-10-19T04:57:26;24.87;;;17.90;;
14191;SDS011;7177;48.572;7.838;2023-10-19T04:59:51;26.33;;;19.90;;
14191;SDS011;7177;48.572;7.838;2023-10-19T05:02:17;23.57;;;17.77;;
14191;SDS011;7177;48.572;7.838;2023-10-19T05:04:43;22.13;;;16.90;;
14191;SDS011;7177;48.572;7.838;2023-10-19T05:07:10;21.47;;;16.07;;
14191;SDS011;7177;48.572;7.838;2023-10-19T05:09:37;25.13;;;16.50;;
14191;SDS011;7177;48.572;7.838;2023-10-19T05:12:04;23.77;;;16.83;;
14191;SDS011;7177;48.572;7.838;2023-10-19T05:14:34;22.77;;;16.70;;
14191;SDS011;7177;48.572;7.838;2023-10-19T05:17:03;19.17;;;14.47;;
14191;SDS011;7177;48.572;7.838;2023-10-19T05:19:30;24.47;;;17.00;;
14191;SDS011;7177;48.572;7.838;2023-10-19T05:22:02;20.27;;;15.77;;
14191;SDS011;7177;48.572;7.838;2023-10-19T05:24:29;25.17;;;18.00;;
14191;SDS011;7177;48.572;7.838;2023-10-19T05:26:55;27.67;;;18.20;;
14191;SDS011;7177;48.572;7.838;2023-10-19T05:29:20;28.93;;;18.63;;
14191;SDS011;7177;48.572;7.838;2023-10-19T05:31:46;25.03;;;18.03;;
14191;SDS011;7177;48.572;7.838;2023-10-19T05:34:12;17.83;;;14.83;;
14191;SDS011;7177;48.572;7.838;2023-10-19T05:36:37;17.87;;;13.80;;
14191;SDS011;7177;48.572;7.838;2023-10-19T05:39:04;19.67;;;14.83;;
14191;SDS011;7177;48.572;7.838;2023-10-19T05:41:32;18.97;;;14.80;;
14191;SDS011;7177;48.572;7.838;2023-10-19T05:43:59;18.80;;;14.07;;
14191;SDS011;7177;48.572;7.838;2023-10-19T05:46:24;22.40;;;16.70;;
14191;SDS011;7177;48.572;7.838;2023-10-19T05:48:50;25.80;;;17.53;;
14191;SDS011;7177;48.572;7.838;2023-10-19T05:51:17;21.20;;;16.80;;
14191;SDS011;7177;48.572;7.838;2023-10-19T05:53:43;23.70;;;17.23;;
14191;SDS011;7177;48.572;7.838;2023-10-19T05:56:09;22.40;;;17.00;;
14191;SDS011;7177;48.572;7.838;2023-10-19T05:58:38;27.40;;;17.97;;
14191;SDS011;7177;48.572;7.838;2023-10-19T06:01:03;20.57;;;15.97;;
14191;SDS011;7177;48.572;7.838;2023-10-19T06:03:29;26.33;;;16.40;;
14191;SDS011;7177;48.572;7.838;2023-10-19T06:05:56;23.40;;;15.97;;
14191;SDS011;7177;48.572;7.838;2023-10-19T06:08:22;26.73;;;17.43;;
14191;SDS011;7177;48.572;7.838;2023-10-19T06:10:53;23.73;;;17.00;;
14191;SDS011;7177;48.572;7.838;2023-10-19T06:13:19;26.07;;;18.33;;
14191;SDS011;7177;48.572;7.838;2023-10-19T06:15:47;22.77;;;16.60;;
14191;SDS011;7177;48.572;7.838;2023-10-19T06:18:13;23.13;;;15.37;;
14191;SDS011;7177;48.572;7.838;2023-10-19T06:20:45;17.73;;;14.87;;
14191;SDS011;7177;48.572;7.838;2023-10-19T06:23:11;17.73;;;14.13;;
14191;SDS011;7177;48.572;7.838;2023-10-19T06:25:37;25.80;;;17.10;;
14191;SDS011;7177;48.572;7.838;2023-10-19T06:28:03;24.60;;;17.57;;
14191;SDS011;7177;48.572;7.838;2023-10-19T06:30:29;23.60;;;17.43;;
14191;SDS011;7177;48.572;7.838;2023-10-19T06:32:56;16.20;;;13.00;;
14191;SDS011;7177;48.572;7.838;2023-10-19T06:35:26;25.00;;;18.87;;
14191;SDS011;7177;48.572;7.838;2023-10-19T06:37:53;28.97;;;19.40;;
14191;SDS011;7177;48.572;7.838;2023-10-19T06:40:22;24.60;;;17.63;;
14191;SDS011;7177;48.572;7.838;2023-10-19T06:42:48;28.63;;;19.03;;
14191;SDS011;7177;48.572;7.838;2023-10-19T06:45:17;29.43;;;18.20;;
14191;SDS011;7177;48.572;7.838;2023-10-19T06:47:45;27.23;;;18.93;;
14191;SDS011;7177;48.572;7.838;2023-10-19T06:50:12;23.13;;;16.77;;
14191;SDS011;7177;48.572;7.838;2023-10-19T06:52:40;20.83;;;15.47;;
14191;SDS011;7177;48.572;7.838;2023-10-19T06:55:08;18.43;;;13.63;;
14191;SDS011;7177;48.572;7.838;2023-10-19T06:57:39;23.77;;;16.73;;
14191;SDS011;7177;48.572;7.838;2023-10-19T07:00:09;24.13;;;17.73;;
14191;SDS011;7177;48.572;7.838;2023-10-19T07:02:44;25.83;;;18.57;;
14191;SDS011;7177;48.572;7.838;2023-10-19T07:05:11;20.67;;;17.17;;
14191;SDS011;7177;48.572;7.838;2023-10-19T07:07:41;24.77;;;17.80;;
14191;SDS011;7177;48.572;7.838;2023-10-19T07:10:08;25.93;;;17.60;;
14191;SDS011;7177;48.572;7.838;2023-10-19T07:12:36;26.23;;;18.07;;
14191;SDS011;7177;48.572;7.838;2023-10-19T07:15:02;26.27;;;18.17;;
14191;SDS011;7177;48.572;7.838;2023-10-19T07:17:32;24.03;;;17.27;;
14191;SDS011;7177;48.572;7.838;2023-10-19T07:19:58;23.70;;;16.20;;
14191;SDS011;7177;48.572;7.838;2023-10-19T07:22:24;19.60;;;16.23;;
14191;SDS011;7177;48.572;7.838;2023-10-19T07:24:50;22.10;;;15.90;;
14191;SDS011;7177;48.572;7.838;2023-10-19T07:27:16;24.40;;;17.27;;
14191;SDS011;7177;48.572;7.838;2023-10-19T07:29:45;19.67;;;15.13;;
14191;SDS011;7177;48.572;7.838;2023-10-19T07:32:10;25.60;;;16.33;;
14191;SDS011;7177;48.572;7.838;2023-10-19T07:34:38;22.57;;;14.73;;
14191;SDS011;7177;48.572;7.838;2023-10-19T07:37:04;21.73;;;14.50;;
14191;SDS011;7177;48.572;7.838;2023-10-19T07:39:32;27.17;;;15.67;;
14191;SDS011;7177;48.572;7.838;2023-10-19T07:41:58;17.17;;;14.77;;
14191;SDS011;7177;48.572;7.838;2023-10-19T07:44:24;18.93;;;14.43;;
14191;SDS011;7177;48.572;7.838;2023-10-19T07:46:50;17.60;;;13.07;;
14191;SDS011;7177;48.572;7.838;2023-10-19T07:49:16;17.60;;;14.07;;
14191;SDS011;7177;48.572;7.838;2023-10-19T07:51:45;17.73;;;14.00;;
14191;SDS011;7177;48.572;7.838;2023-10-19T07:54:11;16.37;;;12.60;;
14191;SDS011;7177;48.572;7.838;2023-10-19T07:56:37;19.63;;;12.80;;
14191;SDS011;7177;48.572;7.838;2023-10-19T07:59:04;16.70;;;11.37;;
14191;SDS011;7177;48.572;7.838;2023-10-19T08:01:31;14.93;;;11.53;;
14191;SDS011;7177;48.572;7.838;2023-10-19T08:03:57;15.07;;;11.70;;
14191;SDS011;7177;48.572;7.838;2023-10-19T08:06:23;15.67;;;10.90;;
14191;SDS011;7177;48.572;7.838;2023-10-19T08:08:48;18.63;;;11.77;;
14191;SDS011;7177;48.572;7.838;2023-10-19T08:11:15;14.97;;;10.40;;
14191;SDS011;7177;48.572;7.838;2023-10-19T08:13:41;15.87;;;12.17;;
14191;SDS011;7177;48.572;7.838;2023-10-19T08:16:07;14.30;;;10.47;;
14191;SDS011;7177;48.572;7.838;2023-10-19T08:18:33;18.30;;;10.47;;
14191;SDS011;7177;48.572;7.838;2023-10-19T08:21:00;16.30;;;10.80;;
14191;SDS011;7177;48.572;7.838;2023-10-19T08:23:26;20.00;;;11.17;;
14191;SDS011;7177;48.572;7.838;2023-10-19T08:25:53;17.70;;;11.77;;
14191;SDS011;7177;48.572;7.838;2023-10-19T08:28:19;12.23;;;10.70;;
14191;SDS011;7177;48.572;7.838;2023-10-19T08:30:45;15.27;;;11.23;;
14191;SDS011;7177;48.572;7.838;2023-10-19T08:33:21;16.63;;;11.40;;
14191;SDS011;7177;48.572;7.838;2023-10-19T08:35:50;11.83;;;10.23;;
14191;SDS011;7177;48.572;7.838;2023-10-19T08:38:17;22.03;;;10.90;;
14191;SDS011;7177;48.572;7.838;2023-10-19T08:40:42;13.07;;;10.03;;
14191;SDS011;7177;48.572;7.838;2023-10-19T08:43:08;13.40;;;10.00;;
14191;SDS011;7177;48.572;7.838;2023-10-19T08:45:38;10.57;;;9.27;;
14191;SDS011;7177;48.572;7.838;2023-10-19T08:48:04;12.27;;;9.37;;
14191;SDS011;7177;48.572;7.838;2023-10-19T08:50:31;12.90;;;9.10;;
14191;SDS011;7177;48.572;7.838;2023-10-19T08:52:59;15.10;;;9.63;;
14191;SDS011;7177;48.572;7.838;2023-10-19T08:55:27;10.03;;;8.57;;
14191;SDS011;7177;48.572;7.838;2023-10-19T08:57:53;10.53;;;8.60;;
14191;SDS011;7177;48.572;7.838;2023-10-19T09:00:19;13.27;;;9.07;;
14191;SDS011;7177;48.572;7.838;2023-10-19T09:02:49;10.60;;;8.77;;
14191;SDS011;7177;48.572;7.838;2023-10-19T09:05:16;12.30;;;9.20;;
14191;SDS011;7177;48.572;7.838;2023-10-19T09:10:29;10.70;;;9.10;;
14191;SDS011;7177;48.572;7.838;2023-10-19T09:13:04;11.63;;;9.87;;
14191;SDS011;7177;48.572;7.838;2023-10-19T09:15:35;12.97;;;10.20;;
14191;SDS011;7177;48.572;7.838;2023-10-19T09:20:59;15.47;;;10.97;;
14191;SDS011;7177;48.572;7.838;2023-10-19T09:23:32;13.30;;;10.50;;
14191;SDS011;7177;48.572;7.838;2023-10-19T09:25:59;15.67;;;11.30;;
14191;SDS011;7177;48.572;7.838;2023-10-19T09:28:28;14.83;;;11.30;;
14191;SDS011;7177;48.572;7.838;2023-10-19T09:30:55;19.17;;;12.00;;
14191;SDS011;7177;48.572;7.838;2023-10-19T09:33:21;15.10;;;10.97;;
14191;SDS011;7177;48.572;7.838;2023-10-19T09:35:49;12.80;;;10.97;;
14191;SDS011;7177;48.572;7.838;2023-10-19T09:38:17;15.13;;;10.67;;
14191;SDS011;7177;48.572;7.838;2023-10-19T09:40:47;14.40;;;12.07;;
14191;SDS011;7177;48.572;7.838;2023-10-19T09:43:19;17.23;;;12.07;;
14191;SDS011;7177;48.572;7.838;2023-10-19T09:45:59;15.20;;;11.83;;
14191;SDS011;7177;48.572;7.838;2023-10-19T09:48:26;15.50;;;12.50;;
14191;SDS011;7177;48.572;7.838;2023-10-19T09:50:53;17.10;;;13.67;;
14191;SDS011;7177;48.572;7.838;2023-10-19T09:53:25;17.17;;;12.67;;
14191;SDS011;7177;48.572;7.838;2023-10-19T09:55:53;14.07;;;12.37;;
14191;SDS011;7177;48.572;7.838;2023-10-19T09:58:23;16.20;;;13.10;;
14191;SDS011;7177;48.572;7.838;2023-10-19T10:00:52;18.00;;;13.90;;
14191;SDS011;7177;48.572;7.838;2023-10-19T10:03:41;19.07;;;13.17;;
14191;SDS011;7177;48.572;7.838;2023-10-19T10:06:08;16.37;;;13.10;;
14191;SDS011;7177;48.572;7.838;2023-10-19T10:08:38;19.30;;;13.20;;
14191;SDS011;7177;48.572;7.838;2023-10-19T10:11:14;18.53;;;13.57;;
14191;SDS011;7177;48.572;7.838;2023-10-19T10:13:42;19.10;;;12.60;;
14191;SDS011;7177;48.572;7.838;2023-10-19T10:16:12;20.20;;;13.20;;
14191;SDS011;7177;48.572;7.838;2023-10-19T10:18:39;18.77;;;13.33;;
14191;SDS011;7177;48.572;7.838;2023-10-19T10:21:12;16.37;;;13.00;;
14191;SDS011;7177;48.572;7.838;2023-10-19T10:23:43;12.97;;;11.27;;
14191;SDS011;7177;48.572;7.838;2023-10-19T10:26:29;22.97;;;13.30;;
14191;SDS011;7177;48.572;7.838;2023-10-19T10:29:07;18.40;;;12.13;;
14191;SDS011;7177;48.572;7.838;2023-10-19T10:31:34;21.77;;;12.27;;
14191;SDS011;7177;48.572;7.838;2023-10-19T10:34:05;17.17;;;11.67;;
14191;SDS011;7177;48.572;7.838;2023-10-19T10:36:57;15.63;;;12.50;;
14191;SDS011;7177;48.572;7.838;2023-10-19T10:39:30;15.37;;;11.13;;
14191;SDS011;7177;48.572;7.838;2023-10-19T10:42:00;17.00;;;11.87;;
14191;SDS011;7177;48.572;7.838;2023-10-19T10:47:16;14.90;;;11.60;;
14191;SDS011;7177;48.572;7.838;2023-10-19T10:49:58;19.97;;;12.77;;
14191;SDS011;7177;48.572;7.838;2023-10-19T10:54:58;14.27;;;10.50;;
14191;SDS011;7177;48.572;7.838;2023-10-19T10:57:36;14.37;;;10.37;;
14191;SDS011;7177;48.572;7.838;2023-10-19T11:00:03;15.77;;;9.20;;
14191;SDS011;7177;48.572;7.838;2023-10-19T11:02:31;12.50;;;9.33;;
14191;SDS011;7177;48.572;7.838;2023-10-19T11:04:58;13.97;;;9.70;;
14191;SDS011;7177;48.572;7.838;2023-10-19T11:07:25;13.97;;;9.63;;
14191;SDS011;7177;48.572;7.838;2023-10-19T11:09:50;19.10;;;10.33;;
14191;SDS011;7177;48.572;7.838;2023-10-19T11:12:16;13.23;;;10.13;;
14191;SDS011;7177;48.572;7.838;2023-10-19T11:14:54;16.07;;;10.13;;
14191;SDS011;7177;48.572;7.838;2023-10-19T11:17:21;12.93;;;9.67;;
14191;SDS011;7177;48.572;7.838;2023-10-19T11:19:54;12.53;;;9.23;;
14191;SDS011;7177;48.572;7.838;2023-10-19T11:22:21;14.90;;;10.47;;
14191;SDS011;7177;48.572;7.838;2023-10-19T11:24:49;11.77;;;8.73;;
14191;SDS011;7177;48.572;7.838;2023-10-19T11:27:21;15.40;;;9.63;;
14191;SDS011;7177;48.572;7.838;2023-10-19T11:29:55;15.73;;;9.47;;
14191;SDS011;7177;48.572;7.838;2023-10-19T11:32:25;16.00;;;8.43;;
14191;SDS011;7177;48.572;7.838;2023-10-19T11:34:54;15.23;;;9.27;;
14191;SDS011;7177;48.572;7.838;2023-10-19T11:37:20;11.23;;;8.60;;
14191;SDS011;7177;48.572;7.838;2023-10-19T11:39:45;11.40;;;9.00;;
14191;SDS011;7177;48.572;7.838;2023-10-19T11:42:11;10.27;;;8.87;;
14191;SDS011;7177;48.572;7.838;2023-10-19T11:44:37;16.90;;;9.40;;
14191;SDS011;7177;48.572;7.838;2023-10-19T11:47:04;12.13;;;9.27;;
14191;SDS011;7177;48.572;7.838;2023-10-19T11:49:30;11.30;;;8.33;;
14191;SDS011;7177;48.572;7.838;2023-10-19T11:51:55;15.17;;;9.80;;
14191;SDS011;7177;48.572;7.838;2023-10-19T11:54:22;15.47;;;9.83;;
14191;SDS011;7177;48.572;7.838;2023-10-19T11:56:48;11.57;;;8.60;;
14191;SDS011;7177;48.572;7.838;2023-10-19T11:59:14;12.73;;;9.17;;
14191;SDS011;7177;48.572;7.838;2023-10-19T12:01:40;15.47;;;8.60;;
14191;SDS011;7177;48.572;7.838;2023-10-19T12:04:06;14.53;;;9.33;;
14191;SDS011;7177;48.572;7.838;2023-10-19T12:06:31;12.37;;;8.37;;
14191;SDS011;7177;48.572;7.838;2023-10-19T12:08:57;10.90;;;8.13;;
14191;SDS011;7177;48.572;7.838;2023-10-19T12:11:36;14.23;;;8.90;;
14191;SDS011;7177;48.572;7.838;2023-10-19T12:14:01;14.00;;;9.30;;
14191;SDS011;7177;48.572;7.838;2023-10-19T12:16:29;13.03;;;7.83;;
14191;SDS011;7177;48.572;7.838;2023-10-19T12:18:54;12.17;;;7.53;;
14191;SDS011;7177;48.572;7.838;2023-10-19T12:21:20;11.00;;;7.83;;
14191;SDS011;7177;48.572;7.838;2023-10-19T12:23:52;14.63;;;8.37;;
14191;SDS011;7177;48.572;7.838;2023-10-19T12:26:20;9.77;;;8.07;;
14191;SDS011;7177;48.572;7.838;2023-10-19T12:28:45;11.47;;;7.40;;
14191;SDS011;7177;48.572;7.838;2023-10-19T12:31:12;11.23;;;8.10;;
14191;SDS011;7177;48.572;7.838;2023-10-19T12:33:38;9.70;;;7.63;;
14191;SDS011;7177;48.572;7.838;2023-10-19T12:36:04;12.43;;;8.37;;
14191;SDS011;7177;48.572;7.838;2023-10-19T12:38:50;9.90;;;8.00;;
14191;SDS011;7177;48.572;7.838;2023-10-19T12:41:18;12.53;;;8.27;;
14191;SDS011;7177;48.572;7.838;2023-10-19T12:43:44;12.37;;;9.00;;
14191;SDS011;7177;48.572;7.838;2023-10-19T12:46:11;12.57;;;9.27;;
14191;SDS011;7177;48.572;7.838;2023-10-19T12:48:38;13.87;;;9.90;;
14191;SDS011;7177;48.572;7.838;2023-10-19T12:51:07;12.17;;;9.03;;
14191;SDS011;7177;48.572;7.838;2023-10-19T12:53:34;12.17;;;8.57;;
14191;SDS011;7177;48.572;7.838;2023-10-19T12:56:00;10.80;;;8.63;;
14191;SDS011;7177;48.572;7.838;2023-10-19T12:58:25;13.47;;;9.97;;
14191;SDS011;7177;48.572;7.838;2023-10-19T13:00:52;12.17;;;8.60;;
14191;SDS011;7177;48.572;7.838;2023-10-19T13:03:19;12.33;;;9.67;;
14191;SDS011;7177;48.572;7.838;2023-10-19T13:05:46;13.57;;;9.00;;
14191;SDS011;7177;48.572;7.838;2023-10-19T13:08:14;15.80;;;10.87;;
14191;SDS011;7177;48.572;7.838;2023-10-19T13:10:41;14.47;;;9.73;;
14191;SDS011;7177;48.572;7.838;2023-10-19T13:13:08;15.40;;;10.87;;
14191;SDS011;7177;48.572;7.838;2023-10-19T13:15:37;13.23;;;9.50;;
14191;SDS011;7177;48.572;7.838;2023-10-19T13:18:04;14.50;;;9.77;;
14191;SDS011;7177;48.572;7.838;2023-10-19T13:20:31;15.23;;;10.60;;
14191;SDS011;7177;48.572;7.838;2023-10-19T13:23:01;13.67;;;10.37;;
14191;SDS011;7177;48.572;7.838;2023-10-19T13:25:28;14.30;;;10.07;;
14191;SDS011;7177;48.572;7.838;2023-10-19T13:28:06;16.93;;;9.97;;
14191;SDS011;7177;48.572;7.838;2023-10-19T13:30:45;15.00;;;10.40;;
14191;SDS011;7177;48.572;7.838;2023-10-19T13:33:15;13.97;;;10.50;;
14191;SDS011;7177;48.572;7.838;2023-10-19T13:35:43;10.47;;;8.77;;
14191;SDS011;7177;48.572;7.838;2023-10-19T13:38:10;14.73;;;9.77;;
14191;SDS011;7177;48.572;7.838;2023-10-19T13:40:39;10.73;;;8.50;;
14191;SDS011;7177;48.572;7.838;2023-10-19T13:43:06;15.77;;;9.20;;
14191;SDS011;7177;48.572;7.838;2023-10-19T13:45:34;13.97;;;10.40;;
14191;SDS011;7177;48.572;7.838;2023-10-19T13:48:01;11.43;;;8.47;;
14191;SDS011;7177;48.572;7.838;2023-10-19T13:50:31;11.47;;;8.30;;
14191;SDS011;7177;48.572;7.838;2023-10-19T13:52:57;11.03;;;8.57;;
14191;SDS011;7177;48.572;7.838;2023-10-19T13:55:25;12.83;;;9.97;;
14191;SDS011;7177;48.572;7.838;2023-10-19T13:57:54;10.93;;;8.27;;
14191;SDS011;7177;48.572;7.838;2023-10-19T14:00:21;10.87;;;9.77;;
14191;SDS011;7177;48.572;7.838;2023-10-19T14:02:55;11.83;;;8.83;;
14191;SDS011;7177;48.572;7.838;2023-10-19T14:05:22;10.50;;;9.30;;
14191;SDS011;7177;48.572;7.838;2023-10-19T14:07:49;15.07;;;10.70;;
14191;SDS011;7177;48.572;7.838;2023-10-19T14:10:16;12.83;;;9.53;;
14191;SDS011;7177;48.572;7.838;2023-10-19T14:12:44;14.93;;;9.67;;
14191;SDS011;7177;48.572;7.838;2023-10-19T14:15:17;12.87;;;10.00;;
14191;SDS011;7177;48.572;7.838;2023-10-19T14:17:46;12.20;;;9.10;;
14191;SDS011;7177;48.572;7.838;2023-10-19T14:20:13;10.27;;;8.57;;
14191;SDS011;7177;48.572;7.838;2023-10-19T14:22:49;10.60;;;7.80;;
14191;SDS011;7177;48.572;7.838;2023-10-19T14:25:16;10.03;;;7.27;;
14191;SDS011;7177;48.572;7.838;2023-10-19T14:27:45;11.27;;;6.97;;
14191;SDS011;7177;48.572;7.838;2023-10-19T14:30:13;10.40;;;8.27;;
14191;SDS011;7177;48.572;7.838;2023-10-19T14:32:46;8.90;;;7.77;;
14191;SDS011;7177;48.572;7.838;2023-10-19T14:35:13;9.87;;;7.17;;
14191;SDS011;7177;48.572;7.838;2023-10-19T14:37:41;12.63;;;8.40;;
14191;SDS011;7177;48.572;7.838;2023-10-19T14:40:09;8.30;;;6.83;;
14191;SDS011;7177;48.572;7.838;2023-10-19T14:42:41;10.30;;;7.57;;
14191;SDS011;7177;48.572;7.838;2023-10-19T14:45:14;13.13;;;8.67;;
14191;SDS011;7177;48.572;7.838;2023-10-19T14:47:48;9.20;;;7.33;;
14191;SDS011;7177;48.572;7.838;2023-10-19T14:50:16;10.93;;;7.00;;
14191;SDS011;7177;48.572;7.838;2023-10-19T14:52:46;10.43;;;7.67;;
14191;SDS011;7177;48.572;7.838;2023-10-19T14:55:13;10.70;;;8.27;;
14191;SDS011;7177;48.572;7.838;2023-10-19T14:57:43;12.17;;;8.27;;
14191;SDS011;7177;48.572;7.838;2023-10-19T15:00:11;13.60;;;8.97;;